Terminal Aerodrome Forecast
Issued by NWS

Home | Current Version | Previous Version | Text Only | Print | Product List | Glossary On
Versions: 1 2 3 4 5 6 7 8 9 10 11 12 13 14 15 16 17 18 19 20 21 22
838
FTUS44 KEWX 141355 AAD
TAFSSF
TAF AMD
KSSF 141355Z 1414/1512 VRB03KT 1/2SM FG OVC003
     FM141600 18006KT P6SM BKN008
     FM141700 18009KT P6SM SCT015 BKN030
     FM141800 18013G23KT P6SM SCT030
     FM142200 14009KT P6SM FEW040 SCT250
     FM150600 15005KT 4SM BR OVC010=

USA.gov is the U.S. government's official web portal to all federal, state and local government web resources and services.